sensor_id;sensor_type;location;lat;lon;timestamp;pressure;altitude;pressure_sealevel;temperature;humidity
1480;BME280;732;51.698;4.886;2023-01-28T00:00:00;103095.00;;;2.55;100.00
1480;BME280;732;51.698;4.886;2023-01-28T00:02:31;103091.75;;;2.46;100.00
1480;BME280;732;51.698;4.886;2023-01-28T00:04:59;103087.72;;;2.38;100.00
1480;BME280;732;51.698;4.886;2023-01-28T00:07:28;103068.41;;;2.34;100.00
1480;BME280;732;51.698;4.886;2023-01-28T00:09:56;103094.69;;;2.39;100.00
1480;BME280;732;51.698;4.886;2023-01-28T00:12:25;103091.31;;;2.40;100.00
1480;BME280;732;51.698;4.886;2023-01-28T00:14:53;103077.81;;;2.21;100.00
1480;BME280;732;51.698;4.886;2023-01-28T00:17:23;103060.00;;;2.25;100.00
1480;BME280;732;51.698;4.886;2023-01-28T00:19:52;103091.22;;;2.38;100.00
1480;BME280;732;51.698;4.886;2023-01-28T00:22:20;103075.22;;;2.21;100.00
1480;BME280;732;51.698;4.886;2023-01-28T00:24:48;103052.25;;;2.02;100.00
1480;BME280;732;51.698;4.886;2023-01-28T00:27:17;103073.94;;;1.91;100.00
1480;BME280;732;51.698;4.886;2023-01-28T00:29:45;103091.63;;;1.97;100.00
1480;BME280;732;51.698;4.886;2023-01-28T00:32:14;103110.56;;;2.07;100.00
1480;BME280;732;51.698;4.886;2023-01-28T00:34:44;103114.16;;;2.21;100.00
1480;BME280;732;51.698;4.886;2023-01-28T00:37:13;103111.56;;;2.09;100.00
1480;BME280;732;51.698;4.886;2023-01-28T00:39:41;103076.72;;;1.94;100.00
1480;BME280;732;51.698;4.886;2023-01-28T00:42:10;103104.78;;;2.23;100.00
1480;BME280;732;51.698;4.886;2023-01-28T00:44:38;103118.53;;;2.33;100.00
1480;BME280;732;51.698;4.886;2023-01-28T00:47:07;102977.84;;;1.43;100.00
1480;BME280;732;51.698;4.886;2023-01-28T00:49:35;103080.66;;;2.12;100.00
1480;BME280;732;51.698;4.886;2023-01-28T00:52:05;103126.56;;;2.25;100.00
1480;BME280;732;51.698;4.886;2023-01-28T00:54:36;102991.63;;;1.42;100.00
1480;BME280;732;51.698;4.886;2023-01-28T00:57:04;103063.06;;;1.62;100.00
1480;BME280;732;51.698;4.886;2023-01-28T01:00:35;103124.91;;;2.02;100.00
1480;BME280;732;51.698;4.886;2023-01-28T01:03:46;103117.47;;;2.07;100.00
1480;BME280;732;51.698;4.886;2023-01-28T01:06:21;103085.84;;;1.77;100.00
1480;BME280;732;51.698;4.886;2023-01-28T01:08:51;103110.25;;;2.03;100.00
1480;BME280;732;51.698;4.886;2023-01-28T01:11:19;103079.69;;;1.99;100.00
1480;BME280;732;51.698;4.886;2023-01-28T01:13:53;103109.06;;;2.34;100.00
1480;BME280;732;51.698;4.886;2023-01-28T01:16:26;103112.38;;;2.20;100.00
1480;BME280;732;51.698;4.886;2023-01-28T01:18:55;103100.53;;;1.89;100.00
1480;BME280;732;51.698;4.886;2023-01-28T01:21:26;103099.88;;;1.91;100.00
1480;BME280;732;51.698;4.886;2023-01-28T01:23:57;103090.25;;;2.02;100.00
1480;BME280;732;51.698;4.886;2023-01-28T01:26:26;102793.19;;;0.40;100.00
1480;BME280;732;51.698;4.886;2023-01-28T01:28:56;102832.47;;;0.58;100.00
1480;BME280;732;51.698;4.886;2023-01-28T01:31:25;103054.75;;;2.01;100.00
1480;BME280;732;51.698;4.886;2023-01-28T01:33:53;103103.66;;;2.31;100.00
1480;BME280;732;51.698;4.886;2023-01-28T01:36:22;103043.47;;;1.89;100.00
1480;BME280;732;51.698;4.886;2023-01-28T01:38:53;103104.91;;;2.01;100.00
1480;BME280;732;51.698;4.886;2023-01-28T01:41:27;103063.53;;;1.79;100.00
1480;BME280;732;51.698;4.886;2023-01-28T01:43:58;103101.00;;;2.06;100.00
1480;BME280;732;51.698;4.886;2023-01-28T01:46:37;103099.03;;;1.80;100.00
1480;BME280;732;51.698;4.886;2023-01-28T01:49:14;103017.31;;;1.39;100.00
1480;BME280;732;51.698;4.886;2023-01-28T01:51:46;103111.47;;;1.96;100.00
1480;BME280;732;51.698;4.886;2023-01-28T01:54:16;103038.25;;;1.65;100.00
1480;BME280;732;51.698;4.886;2023-01-28T01:56:48;103104.03;;;2.12;100.00
1480;BME280;732;51.698;4.886;2023-01-28T01:59:21;103093.56;;;1.88;100.00
1480;BME280;732;51.698;4.886;2023-01-28T02:01:52;103125.03;;;1.92;100.00
1480;BME280;732;51.698;4.886;2023-01-28T02:04:25;103109.13;;;1.99;100.00
1480;BME280;732;51.698;4.886;2023-01-28T02:06:59;103003.78;;;1.32;100.00
1480;BME280;732;51.698;4.886;2023-01-28T02:09:30;103127.19;;;1.86;100.00
1480;BME280;732;51.698;4.886;2023-01-28T02:12:06;103124.56;;;1.74;100.00
1480;BME280;732;51.698;4.886;2023-01-28T02:14:41;102963.84;;;0.72;100.00
1480;BME280;732;51.698;4.886;2023-01-28T02:17:12;103123.09;;;1.78;100.00
1480;BME280;732;51.698;4.886;2023-01-28T02:19:47;103122.63;;;1.72;100.00
1480;BME280;732;51.698;4.886;2023-01-28T02:23:11;103068.25;;;1.27;100.00
1480;BME280;732;51.698;4.886;2023-01-28T02:26:25;103058.75;;;1.05;100.00
1480;BME280;732;51.698;4.886;2023-01-28T02:29:07;102912.69;;;0.35;100.00
1480;BME280;732;51.698;4.886;2023-01-28T02:31:43;103093.84;;;1.34;100.00
1480;BME280;732;51.698;4.886;2023-01-28T02:34:21;103022.03;;;1.10;100.00
1480;BME280;732;51.698;4.886;2023-01-28T02:36:57;103021.94;;;1.09;100.00
1480;BME280;732;51.698;4.886;2023-01-28T02:39:32;103077.19;;;1.54;100.00
1480;BME280;732;51.698;4.886;2023-01-28T02:42:06;103113.84;;;1.81;100.00
1480;BME280;732;51.698;4.886;2023-01-28T02:44:38;102947.56;;;0.84;100.00
1480;BME280;732;51.698;4.886;2023-01-28T02:47:09;103119.94;;;1.70;100.00
1480;BME280;732;51.698;4.886;2023-01-28T02:49:58;103122.06;;;1.64;100.00
1480;BME280;732;51.698;4.886;2023-01-28T02:52:48;103118.09;;;1.46;100.00
1480;BME280;732;51.698;4.886;2023-01-28T02:55:46;103122.53;;;1.70;100.00
1480;BME280;732;51.698;4.886;2023-01-28T02:58:25;103089.25;;;1.53;100.00
1480;BME280;732;51.698;4.886;2023-01-28T03:01:07;103123.41;;;1.59;100.00
1480;BME280;732;51.698;4.886;2023-01-28T03:03:47;103094.31;;;1.40;100.00
1480;BME280;732;51.698;4.886;2023-01-28T03:06:21;103128.13;;;1.42;100.00
1480;BME280;732;51.698;4.886;2023-01-28T03:08:53;103107.59;;;1.22;100.00
1480;BME280;732;51.698;4.886;2023-01-28T03:11:43;103100.72;;;1.45;100.00
1480;BME280;732;51.698;4.886;2023-01-28T03:14:32;103124.31;;;1.48;100.00
1480;BME280;732;51.698;4.886;2023-01-28T03:17:25;103042.53;;;0.96;100.00
1480;BME280;732;51.698;4.886;2023-01-28T03:20:14;103084.66;;;1.05;100.00
1480;BME280;732;51.698;4.886;2023-01-28T03:23:09;103083.16;;;0.97;100.00
1480;BME280;732;51.698;4.886;2023-01-28T03:26:00;103125.63;;;1.32;100.00
1480;BME280;732;51.698;4.886;2023-01-28T03:28:48;103102.75;;;1.38;100.00
1480;BME280;732;51.698;4.886;2023-01-28T03:31:35;103133.88;;;1.49;100.00
1480;BME280;732;51.698;4.886;2023-01-28T03:34:23;103128.72;;;1.61;100.00
1480;BME280;732;51.698;4.886;2023-01-28T03:37:09;103138.41;;;1.52;100.00
1480;BME280;732;51.698;4.886;2023-01-28T03:39:49;103138.97;;;1.48;100.00
1480;BME280;732;51.698;4.886;2023-01-28T03:42:18;103036.94;;;0.79;100.00
1480;BME280;732;51.698;4.886;2023-01-28T03:45:13;103141.88;;;1.41;100.00
1480;BME280;732;51.698;4.886;2023-01-28T03:47:45;103136.03;;;1.55;100.00
1480;BME280;732;51.698;4.886;2023-01-28T03:50:16;103133.13;;;1.50;100.00
1480;BME280;732;51.698;4.886;2023-01-28T03:52:55;103134.47;;;1.57;100.00
1480;BME280;732;51.698;4.886;2023-01-28T03:55:48;103145.06;;;1.48;100.00
1480;BME280;732;51.698;4.886;2023-01-28T03:58:17;103143.03;;;1.56;100.00
1480;BME280;732;51.698;4.886;2023-01-28T04:00:46;102989.13;;;0.86;100.00
1480;BME280;732;51.698;4.886;2023-01-28T04:03:18;103081.31;;;1.29;100.00
1480;BME280;732;51.698;4.886;2023-01-28T04:06:01;103145.06;;;1.71;100.00
1480;BME280;732;51.698;4.886;2023-01-28T04:08:46;103143.03;;;1.79;100.00
1480;BME280;732;51.698;4.886;2023-01-28T04:11:28;103149.19;;;1.91;100.00
1480;BME280;732;51.698;4.886;2023-01-28T04:14:00;103107.63;;;1.68;100.00
1480;BME280;732;51.698;4.886;2023-01-28T04:16:42;103103.31;;;1.45;100.00
1480;BME280;732;51.698;4.886;2023-01-28T04:19:11;103115.28;;;1.55;100.00
1480;BME280;732;51.698;4.886;2023-01-28T04:21:42;103144.38;;;1.62;100.00
1480;BME280;732;51.698;4.886;2023-01-28T04:24:11;103070.97;;;1.29;100.00
1480;BME280;732;51.698;4.886;2023-01-28T04:26:40;102972.63;;;0.74;100.00
1480;BME280;732;51.698;4.886;2023-01-28T04:29:09;103150.13;;;1.58;100.00
1480;BME280;732;51.698;4.886;2023-01-28T04:31:38;103122.75;;;1.50;100.00
1480;BME280;732;51.698;4.886;2023-01-28T04:34:42;103154.50;;;1.36;100.00
1480;BME280;732;51.698;4.886;2023-01-28T04:37:27;103104.19;;;1.23;100.00
1480;BME280;732;51.698;4.886;2023-01-28T04:40:12;103126.19;;;1.39;100.00
1480;BME280;732;51.698;4.886;2023-01-28T04:42:56;103143.63;;;1.19;100.00
1480;BME280;732;51.698;4.886;2023-01-28T04:45:37;103163.25;;;1.27;100.00
1480;BME280;732;51.698;4.886;2023-01-28T04:48:21;103145.75;;;1.13;100.00
1480;BME280;732;51.698;4.886;2023-01-28T04:51:08;103175.34;;;1.38;100.00
1480;BME280;732;51.698;4.886;2023-01-28T04:53:46;103115.09;;;1.07;100.00
1480;BME280;732;51.698;4.886;2023-01-28T04:56:24;103172.31;;;1.43;100.00
1480;BME280;732;51.698;4.886;2023-01-28T04:58:53;103095.31;;;0.86;100.00
1480;BME280;732;51.698;4.886;2023-01-28T05:01:22;103111.72;;;0.86;100.00
1480;BME280;732;51.698;4.886;2023-01-28T05:03:51;103112.75;;;0.77;100.00
1480;BME280;732;51.698;4.886;2023-01-28T05:06:24;103099.78;;;0.77;100.00
1480;BME280;732;51.698;4.886;2023-01-28T05:08:56;103069.31;;;0.63;100.00
1480;BME280;732;51.698;4.886;2023-01-28T05:11:26;103086.91;;;1.00;100.00
1480;BME280;732;51.698;4.886;2023-01-28T05:13:58;103106.63;;;1.10;100.00
1480;BME280;732;51.698;4.886;2023-01-28T05:16:32;103144.63;;;1.54;100.00
1480;BME280;732;51.698;4.886;2023-01-28T05:19:02;102907.94;;;0.29;100.00
1480;BME280;732;51.698;4.886;2023-01-28T05:21:35;103134.34;;;1.55;100.00
1480;BME280;732;51.698;4.886;2023-01-28T05:24:09;103088.19;;;1.28;100.00
1480;BME280;732;51.698;4.886;2023-01-28T05:26:38;103086.59;;;1.19;100.00
1480;BME280;732;51.698;4.886;2023-01-28T05:29:07;102985.78;;;0.54;100.00
1480;BME280;732;51.698;4.886;2023-01-28T05:31:35;103145.03;;;1.37;100.00
1480;BME280;732;51.698;4.886;2023-01-28T05:34:04;103089.75;;;1.26;100.00
1480;BME280;732;51.698;4.886;2023-01-28T05:36:32;103135.47;;;1.47;100.00
1480;BME280;732;51.698;4.886;2023-01-28T05:39:08;103127.00;;;1.50;100.00
1480;BME280;732;51.698;4.886;2023-01-28T05:41:37;102943.34;;;0.52;100.00
1480;BME280;732;51.698;4.886;2023-01-28T05:44:05;103144.16;;;1.59;100.00
1480;BME280;732;51.698;4.886;2023-01-28T05:46:53;103160.88;;;1.74;100.00
1480;BME280;732;51.698;4.886;2023-01-28T05:49:41;103153.31;;;1.77;100.00
1480;BME280;732;51.698;4.886;2023-01-28T05:52:26;103154.13;;;1.88;100.00
1480;BME280;732;51.698;4.886;2023-01-28T05:54:57;103120.69;;;1.69;100.00
1480;BME280;732;51.698;4.886;2023-01-28T05:57:26;103145.47;;;1.88;100.00
1480;BME280;732;51.698;4.886;2023-01-28T05:59:54;103151.41;;;1.87;100.00
1480;BME280;732;51.698;4.886;2023-01-28T06:02:23;103147.25;;;1.89;100.00
1480;BME280;732;51.698;4.886;2023-01-28T06:04:55;103144.66;;;1.89;100.00
1480;BME280;732;51.698;4.886;2023-01-28T06:07:24;103146.31;;;1.76;100.00
1480;BME280;732;51.698;4.886;2023-01-28T06:09:52;103143.38;;;1.60;100.00
1480;BME280;732;51.698;4.886;2023-01-28T06:12:22;103146.97;;;1.62;100.00
1480;BME280;732;51.698;4.886;2023-01-28T06:15:10;103132.44;;;1.64;100.00
1480;BME280;732;51.698;4.886;2023-01-28T06:17:58;103083.81;;;1.27;100.00
1480;BME280;732;51.698;4.886;2023-01-28T06:20:30;103103.00;;;1.41;100.00
1480;BME280;732;51.698;4.886;2023-01-28T06:23:00;103143.50;;;1.73;100.00
1480;BME280;732;51.698;4.886;2023-01-28T06:25:28;103144.41;;;1.74;100.00
1480;BME280;732;51.698;4.886;2023-01-28T06:28:03;103084.56;;;1.26;100.00
1480;BME280;732;51.698;4.886;2023-01-28T06:30:32;103118.81;;;1.11;100.00
1480;BME280;732;51.698;4.886;2023-01-28T06:33:00;103105.19;;;1.13;100.00
1480;BME280;732;51.698;4.886;2023-01-28T06:35:29;103155.28;;;1.35;100.00
1480;BME280;732;51.698;4.886;2023-01-28T06:37:57;103133.31;;;0.97;100.00
1480;BME280;732;51.698;4.886;2023-01-28T06:40:25;103133.78;;;1.03;100.00
1480;BME280;732;51.698;4.886;2023-01-28T06:42:54;103128.66;;;1.15;100.00
1480;BME280;732;51.698;4.886;2023-01-28T06:45:24;103085.44;;;0.92;100.00
1480;BME280;732;51.698;4.886;2023-01-28T06:47:54;103149.56;;;1.06;100.00
1480;BME280;732;51.698;4.886;2023-01-28T06:50:23;103110.38;;;0.80;100.00
1480;BME280;732;51.698;4.886;2023-01-28T06:52:52;103158.56;;;1.00;100.00
1480;BME280;732;51.698;4.886;2023-01-28T06:55:20;103156.13;;;1.24;100.00
1480;BME280;732;51.698;4.886;2023-01-28T06:57:48;103154.56;;;1.15;100.00
1480;BME280;732;51.698;4.886;2023-01-28T07:00:18;103125.38;;;0.84;100.00
1480;BME280;732;51.698;4.886;2023-01-28T07:02:48;103171.84;;;1.04;100.00
1480;BME280;732;51.698;4.886;2023-01-28T07:05:17;103168.31;;;0.92;100.00
1480;BME280;732;51.698;4.886;2023-01-28T07:07:46;103163.84;;;0.79;100.00
1480;BME280;732;51.698;4.886;2023-01-28T07:10:15;103085.72;;;0.52;100.00
1480;BME280;732;51.698;4.886;2023-01-28T07:12:44;103141.69;;;0.83;100.00
1480;BME280;732;51.698;4.886;2023-01-28T07:15:13;103142.91;;;0.76;100.00
1480;BME280;732;51.698;4.886;2023-01-28T07:17:42;103183.81;;;0.80;100.00
1480;BME280;732;51.698;4.886;2023-01-28T07:20:14;103125.53;;;0.64;100.00
1480;BME280;732;51.698;4.886;2023-01-28T07:22:44;103169.56;;;0.75;100.00
1480;BME280;732;51.698;4.886;2023-01-28T07:25:13;103199.09;;;0.77;100.00
1480;BME280;732;51.698;4.886;2023-01-28T07:27:47;103149.53;;;0.73;100.00
1480;BME280;732;51.698;4.886;2023-01-28T07:30:18;103170.38;;;0.74;100.00
1480;BME280;732;51.698;4.886;2023-01-28T07:32:51;103122.84;;;0.74;100.00
1480;BME280;732;51.698;4.886;2023-01-28T07:35:22;103144.25;;;1.05;100.00
1480;BME280;732;51.698;4.886;2023-01-28T07:37:51;103068.03;;;0.46;100.00
1480;BME280;732;51.698;4.886;2023-01-28T07:40:20;103123.84;;;0.98;100.00
1480;BME280;732;51.698;4.886;2023-01-28T07:42:49;103177.59;;;1.33;100.00
1480;BME280;732;51.698;4.886;2023-01-28T07:45:22;103178.03;;;1.28;100.00
1480;BME280;732;51.698;4.886;2023-01-28T07:47:55;103201.69;;;1.32;100.00
1480;BME280;732;51.698;4.886;2023-01-28T07:50:26;103179.91;;;1.19;100.00
1480;BME280;732;51.698;4.886;2023-01-28T07:52:56;103180.88;;;1.09;100.00
1480;BME280;732;51.698;4.886;2023-01-28T07:55:25;103178.44;;;1.11;100.00
1480;BME280;732;51.698;4.886;2023-01-28T07:57:58;103165.66;;;1.02;100.00
1480;BME280;732;51.698;4.886;2023-01-28T08:00:30;103136.59;;;0.73;100.00
1480;BME280;732;51.698;4.886;2023-01-28T08:03:02;103174.81;;;1.09;100.00
1480;BME280;732;51.698;4.886;2023-01-28T08:05:38;103189.75;;;1.01;100.00
1480;BME280;732;51.698;4.886;2023-01-28T08:08:08;103188.31;;;1.05;100.00
1480;BME280;732;51.698;4.886;2023-01-28T08:10:37;103172.16;;;0.97;100.00
1480;BME280;732;51.698;4.886;2023-01-28T08:13:08;103221.19;;;1.27;100.00
1480;BME280;732;51.698;4.886;2023-01-28T08:15:37;103187.88;;;1.10;100.00
1480;BME280;732;51.698;4.886;2023-01-28T08:18:08;103185.81;;;1.06;100.00
1480;BME280;732;51.698;4.886;2023-01-28T08:20:41;103174.16;;;1.23;100.00
1480;BME280;732;51.698;4.886;2023-01-28T08:23:13;103227.88;;;1.47;100.00
1480;BME280;732;51.698;4.886;2023-01-28T08:25:42;103197.44;;;1.33;100.00
1480;BME280;732;51.698;4.886;2023-01-28T08:28:11;103188.31;;;1.38;100.00
1480;BME280;732;51.698;4.886;2023-01-28T08:30:41;103244.66;;;1.73;100.00
1480;BME280;732;51.698;4.886;2023-01-28T08:33:12;103224.69;;;1.72;100.00
1480;BME280;732;51.698;4.886;2023-01-28T08:35:43;103200.88;;;1.66;100.00
1480;BME280;732;51.698;4.886;2023-01-28T08:38:13;103196.84;;;1.70;100.00
1480;BME280;732;51.698;4.886;2023-01-28T08:40:42;103212.19;;;1.67;100.00
1480;BME280;732;51.698;4.886;2023-01-28T08:43:10;103154.28;;;1.33;100.00
1480;BME280;732;51.698;4.886;2023-01-28T08:45:39;103261.34;;;1.99;100.00
1480;BME280;732;51.698;4.886;2023-01-28T08:48:13;103222.88;;;1.71;100.00
1480;BME280;732;51.698;4.886;2023-01-28T08:50:43;103262.56;;;2.04;100.00
1480;BME280;732;51.698;4.886;2023-01-28T08:53:14;103232.78;;;1.99;100.00
1480;BME280;732;51.698;4.886;2023-01-28T08:55:43;103228.72;;;2.14;100.00
1480;BME280;732;51.698;4.886;2023-01-28T08:58:15;103230.56;;;1.81;100.00
1480;BME280;732;51.698;4.886;2023-01-28T09:00:45;103162.84;;;1.44;100.00
1480;BME280;732;51.698;4.886;2023-01-28T09:03:13;103064.84;;;1.17;100.00
1480;BME280;732;51.698;4.886;2023-01-28T09:05:44;103254.91;;;2.17;100.00
1480;BME280;732;51.698;4.886;2023-01-28T09:08:14;103228.50;;;1.66;100.00
1480;BME280;732;51.698;4.886;2023-01-28T09:10:42;103213.56;;;1.40;100.00
1480;BME280;732;51.698;4.886;2023-01-28T09:13:13;103237.97;;;1.65;100.00
1480;BME280;732;51.698;4.886;2023-01-28T09:15:43;103278.25;;;2.05;100.00
1480;BME280;732;51.698;4.886;2023-01-28T09:18:11;103228.13;;;1.83;100.00
1480;BME280;732;51.698;4.886;2023-01-28T09:20:40;103244.63;;;1.95;100.00
1480;BME280;732;51.698;4.886;2023-01-28T09:23:11;103266.50;;;1.54;100.00
1480;BME280;732;51.698;4.886;2023-01-28T09:25:40;103263.47;;;1.59;100.00
1480;BME280;732;51.698;4.886;2023-01-28T09:28:09;103230.16;;;1.42;100.00
1480;BME280;732;51.698;4.886;2023-01-28T09:30:37;103154.97;;;1.09;100.00
1480;BME280;732;51.698;4.886;2023-01-28T09:33:06;103253.31;;;1.84;100.00
1480;BME280;732;51.698;4.886;2023-01-28T09:35:35;103263.59;;;2.06;100.00
1480;BME280;732;51.698;4.886;2023-01-28T09:38:04;103296.56;;;2.30;100.00
1480;BME280;732;51.698;4.886;2023-01-28T09:40:38;103295.47;;;2.49;100.00
1480;BME280;732;51.698;4.886;2023-01-28T09:46:13;103277.69;;;1.86;100.00
1480;BME280;732;51.698;4.886;2023-01-28T09:48:47;103233.78;;;1.89;100.00
1480;BME280;732;51.698;4.886;2023-01-28T09:51:30;103237.34;;;1.79;100.00
1480;BME280;732;51.698;4.886;2023-01-28T09:54:09;103292.34;;;2.09;100.00
1480;BME280;732;51.698;4.886;2023-01-28T09:56:43;103179.78;;;1.50;100.00
1480;BME280;732;51.698;4.886;2023-01-28T09:59:18;103193.22;;;1.68;100.00
1480;BME280;732;51.698;4.886;2023-01-28T10:01:56;103121.56;;;1.24;100.00
1480;BME280;732;51.698;4.886;2023-01-28T10:04:43;103277.56;;;1.96;100.00
1480;BME280;732;51.698;4.886;2023-01-28T10:07:28;103306.22;;;1.98;100.00
1480;BME280;732;51.698;4.886;2023-01-28T10:10:05;103163.06;;;1.02;100.00
1480;BME280;732;51.698;4.886;2023-01-28T10:13:00;103236.84;;;1.50;100.00
1480;BME280;732;51.698;4.886;2023-01-28T10:15:58;103162.06;;;1.12;100.00
1480;BME280;732;51.698;4.886;2023-01-28T10:18:35;103271.16;;;1.69;100.00
1480;BME280;732;51.698;4.886;2023-01-28T10:21:14;103217.63;;;1.37;100.00
1480;BME280;732;51.698;4.886;2023-01-28T10:23:54;103324.31;;;2.08;100.00
1480;BME280;732;51.698;4.886;2023-01-28T10:26:30;103198.94;;;1.52;100.00
1480;BME280;732;51.698;4.886;2023-01-28T10:29:10;103171.31;;;1.53;100.00
1480;BME280;732;51.698;4.886;2023-01-28T10:31:49;103150.03;;;1.68;100.00
1480;BME280;732;51.698;4.886;2023-01-28T10:34:20;103251.31;;;2.38;100.00
1480;BME280;732;51.698;4.886;2023-01-28T10:36:49;103265.50;;;2.66;100.00
1480;BME280;732;51.698;4.886;2023-01-28T10:39:23;103308.03;;;3.03;100.00
1480;BME280;732;51.698;4.886;2023-01-28T10:41:53;103204.84;;;2.65;100.00
1480;BME280;732;51.698;4.886;2023-01-28T10:44:33;103296.88;;;3.40;100.00
1480;BME280;732;51.698;4.886;2023-01-28T10:47:13;103281.63;;;3.57;100.00
1480;BME280;732;51.698;4.886;2023-01-28T10:49:48;103289.94;;;3.65;100.00
1480;BME280;732;51.698;4.886;2023-01-28T10:52:19;103281.03;;;3.61;100.00
1480;BME280;732;51.698;4.886;2023-01-28T10:54:57;103251.19;;;3.56;100.00
1480;BME280;732;51.698;4.886;2023-01-28T10:57:26;103243.53;;;3.71;100.00
1480;BME280;732;51.698;4.886;2023-01-28T10:59:57;103289.53;;;3.97;100.00
1480;BME280;732;51.698;4.886;2023-01-28T11:02:32;103159.28;;;3.44;100.00
1480;BME280;732;51.698;4.886;2023-01-28T11:05:13;103137.31;;;3.52;100.00
1480;BME280;732;51.698;4.886;2023-01-28T11:07:43;103016.19;;;3.05;100.00
1480;BME280;732;51.698;4.886;2023-01-28T11:10:27;103185.91;;;4.17;100.00
1480;BME280;732;51.698;4.886;2023-01-28T11:13:01;103229.94;;;4.39;100.00
1480;BME280;732;51.698;4.886;2023-01-28T11:15:32;103249.44;;;4.45;100.00
1480;BME280;732;51.698;4.886;2023-01-28T11:18:03;103216.00;;;4.25;100.00
1480;BME280;732;51.698;4.886;2023-01-28T11:20:39;103217.66;;;4.51;100.00
1480;BME280;732;51.698;4.886;2023-01-28T11:23:18;103239.03;;;4.72;100.00
1480;BME280;732;51.698;4.886;2023-01-28T11:25:57;103245.00;;;4.84;100.00
1480;BME280;732;51.698;4.886;2023-01-28T11:28:26;103107.69;;;4.29;100.00
1480;BME280;732;51.698;4.886;2023-01-28T11:30:59;103225.16;;;5.13;100.00
1480;BME280;732;51.698;4.886;2023-01-28T11:33:37;103056.69;;;4.32;100.00
1480;BME280;732;51.698;4.886;2023-01-28T11:36:13;103195.16;;;5.34;100.00
1480;BME280;732;51.698;4.886;2023-01-28T11:38:51;103039.00;;;4.54;100.00
1480;BME280;732;51.698;4.886;2023-01-28T11:41:27;103052.81;;;4.53;100.00
1480;BME280;732;51.698;4.886;2023-01-28T11:44:04;103097.69;;;5.05;100.00
1480;BME280;732;51.698;4.886;2023-01-28T11:47:01;103180.34;;;5.62;100.00
1480;BME280;732;51.698;4.886;2023-01-28T11:49:51;103050.75;;;4.90;100.00
1480;BME280;732;51.698;4.886;2023-01-28T11:52:33;103142.66;;;5.57;100.00
1480;BME280;732;51.698;4.886;2023-01-28T11:55:50;103149.56;;;5.42;100.00
1480;BME280;732;51.698;4.886;2023-01-28T11:58:29;103125.41;;;5.32;100.00
1480;BME280;732;51.698;4.886;2023-01-28T12:01:07;103135.44;;;5.53;100.00
1480;BME280;732;51.698;4.886;2023-01-28T12:04:13;103150.03;;;5.64;100.00
1480;BME280;732;51.698;4.886;2023-01-28T12:07:15;103157.41;;;5.86;100.00
1480;BME280;732;51.698;4.886;2023-01-28T12:09:57;103167.31;;;5.92;100.00
1480;BME280;732;51.698;4.886;2023-01-28T12:12:47;103160.25;;;6.05;100.00
1480;BME280;732;51.698;4.886;2023-01-28T12:15:46;103166.13;;;5.87;100.00
1480;BME280;732;51.698;4.886;2023-01-28T12:18:31;103129.75;;;5.60;100.00
1480;BME280;732;51.698;4.886;2023-01-28T12:21:09;103174.84;;;5.58;100.00
1480;BME280;732;51.698;4.886;2023-01-28T12:23:58;103181.44;;;5.51;100.00
1480;BME280;732;51.698;4.886;2023-01-28T12:26:35;103165.28;;;5.29;100.00
1480;BME280;732;51.698;4.886;2023-01-28T12:29:23;103185.72;;;4.81;100.00
1480;BME280;732;51.698;4.886;2023-01-28T12:32:16;103176.25;;;4.96;100.00
1480;BME280;732;51.698;4.886;2023-01-28T12:35:16;103184.75;;;5.07;100.00
1480;BME280;732;51.698;4.886;2023-01-28T12:37:59;103168.09;;;4.90;100.00
1480;BME280;732;51.698;4.886;2023-01-28T12:40:59;103191.09;;;5.25;100.00
1480;BME280;732;51.698;4.886;2023-01-28T12:43:44;103180.16;;;5.03;100.00
1480;BME280;732;51.698;4.886;2023-01-28T12:46:37;103148.50;;;4.69;100.00
1480;BME280;732;51.698;4.886;2023-01-28T12:49:15;103166.97;;;4.87;100.00
1480;BME280;732;51.698;4.886;2023-01-28T12:51:55;103165.66;;;4.93;100.00
1480;BME280;732;51.698;4.886;2023-01-28T12:54:33;103207.31;;;5.06;100.00
1480;BME280;732;51.698;4.886;2023-01-28T12:57:04;103197.34;;;4.99;100.00
1480;BME280;732;51.698;4.886;2023-01-28T12:59:39;103161.25;;;4.92;100.00
1480;BME280;732;51.698;4.886;2023-01-28T13:02:25;103186.28;;;5.45;100.00
1480;BME280;732;51.698;4.886;2023-01-28T13:05:01;103151.81;;;5.36;100.00
1480;BME280;732;51.698;4.886;2023-01-28T13:07:37;103173.03;;;5.28;100.00
1480;BME280;732;51.698;4.886;2023-01-28T13:10:18;103143.34;;;5.40;100.00
1480;BME280;732;51.698;4.886;2023-01-28T13:12:49;103164.16;;;5.68;100.00
1480;BME280;732;51.698;4.886;2023-01-28T13:15:19;103078.28;;;5.29;100.00
1480;BME280;732;51.698;4.886;2023-01-28T13:17:56;103113.28;;;5.32;100.00
1480;BME280;732;51.698;4.886;2023-01-28T13:20:38;103029.59;;;4.86;100.00
1480;BME280;732;51.698;4.886;2023-01-28T13:23:23;103133.78;;;5.26;100.00
1480;BME280;732;51.698;4.886;2023-01-28T13:25:55;103136.06;;;5.20;100.00
1480;BME280;732;51.698;4.886;2023-01-28T13:28:30;103085.28;;;5.15;100.00
1480;BME280;732;51.698;4.886;2023-01-28T13:31:04;103062.47;;;5.26;100.00
1480;BME280;732;51.698;4.886;2023-01-28T13:33:35;103055.44;;;5.25;100.00
1480;BME280;732;51.698;4.886;2023-01-28T13:36:21;103113.84;;;5.56;100.00
1480;BME280;732;51.698;4.886;2023-01-28T13:39:01;103060.75;;;5.41;100.00
1480;BME280;732;51.698;4.886;2023-01-28T13:41:43;103094.00;;;5.74;100.00
1480;BME280;732;51.698;4.886;2023-01-28T13:44:25;103057.28;;;5.56;100.00
1480;BME280;732;51.698;4.886;2023-01-28T13:46:57;103100.59;;;5.82;100.00
1480;BME280;732;51.698;4.886;2023-01-28T13:49:33;103103.38;;;5.71;100.00
1480;BME280;732;51.698;4.886;2023-01-28T13:52:13;103110.31;;;5.55;100.00
1480;BME280;732;51.698;4.886;2023-01-28T13:54:49;103112.75;;;5.67;100.00
1480;BME280;732;51.698;4.886;2023-01-28T14:01:59;103111.84;;;6.26;100.00
1480;BME280;732;51.698;4.886;2023-01-28T14:04:52;103118.63;;;6.39;100.00
1480;BME280;732;51.698;4.886;2023-01-28T14:08:11;103083.19;;;6.28;100.00
1480;BME280;732;51.698;4.886;2023-01-28T14:10:55;103125.41;;;6.66;100.00
1480;BME280;732;51.698;4.886;2023-01-28T14:13:53;103122.31;;;6.89;100.00
1480;BME280;732;51.698;4.886;2023-01-28T14:16:34;103093.34;;;6.54;100.00